sensor_id;sensor_type;location;lat;lon;timestamp;temperature;humidity
4695;DHT22;2361;49.540;8.390;2022-07-04T00:00:06;22.10;84.30
4695;DHT22;2361;49.540;8.390;2022-07-04T00:02:33;22.00;84.50
4695;DHT22;2361;49.540;8.390;2022-07-04T00:05:00;22.00;84.90
4695;DHT22;2361;49.540;8.390;2022-07-04T00:07:27;22.00;84.80
4695;DHT22;2361;49.540;8.390;2022-07-04T00:09:55;22.00;84.90
4695;DHT22;2361;49.540;8.390;2022-07-04T00:12:22;22.10;84.90
4695;DHT22;2361;49.540;8.390;2022-07-04T00:14:48;22.10;84.90
4695;DHT22;2361;49.540;8.390;2022-07-04T00:17:15;22.10;85.10
4695;DHT22;2361;49.540;8.390;2022-07-04T00:19:42;22.10;84.90
4695;DHT22;2361;49.540;8.390;2022-07-04T00:22:09;22.10;85.00
4695;DHT22;2361;49.540;8.390;2022-07-04T00:24:35;22.00;85.40
4695;DHT22;2361;49.540;8.390;2022-07-04T00:27:02;22.10;85.40
4695;DHT22;2361;49.540;8.390;2022-07-04T00:29:29;22.00;85.50
4695;DHT22;2361;49.540;8.390;2022-07-04T00:31:56;22.00;86.00
4695;DHT22;2361;49.540;8.390;2022-07-04T00:34:23;22.00;86.40
4695;DHT22;2361;49.540;8.390;2022-07-04T00:36:50;22.00;87.10
4695;DHT22;2361;49.540;8.390;2022-07-04T00:39:17;22.10;87.30
4695;DHT22;2361;49.540;8.390;2022-07-04T00:41:43;22.00;87.80
4695;DHT22;2361;49.540;8.390;2022-07-04T00:44:12;21.90;88.00
4695;DHT22;2361;49.540;8.390;2022-07-04T00:46:41;21.80;88.60
4695;DHT22;2361;49.540;8.390;2022-07-04T00:49:09;21.70;89.00
4695;DHT22;2361;49.540;8.390;2022-07-04T00:51:37;21.70;89.20
4695;DHT22;2361;49.540;8.390;2022-07-04T00:54:07;21.70;89.40
4695;DHT22;2361;49.540;8.390;2022-07-04T00:56:38;21.70;89.70
4695;DHT22;2361;49.540;8.390;2022-07-04T00:59:06;21.60;89.60
4695;DHT22;2361;49.540;8.390;2022-07-04T01:01:34;21.60;89.70
4695;DHT22;2361;49.540;8.390;2022-07-04T01:04:03;21.50;90.10
4695;DHT22;2361;49.540;8.390;2022-07-04T01:06:31;21.50;90.20
4695;DHT22;2361;49.540;8.390;2022-07-04T01:08:59;21.50;90.30
4695;DHT22;2361;49.540;8.390;2022-07-04T01:11:26;21.40;90.50
4695;DHT22;2361;49.540;8.390;2022-07-04T01:13:54;21.40;90.70
4695;DHT22;2361;49.540;8.390;2022-07-04T01:16:21;21.30;90.80
4695;DHT22;2361;49.540;8.390;2022-07-04T01:18:48;21.20;91.40
4695;DHT22;2361;49.540;8.390;2022-07-04T01:21:15;21.00;91.30
4695;DHT22;2361;49.540;8.390;2022-07-04T01:23:42;21.00;91.50
4695;DHT22;2361;49.540;8.390;2022-07-04T01:26:09;20.90;91.60
4695;DHT22;2361;49.540;8.390;2022-07-04T01:28:36;20.90;91.70
4695;DHT22;2361;49.540;8.390;2022-07-04T01:31:04;20.80;91.90
4695;DHT22;2361;49.540;8.390;2022-07-04T01:33:32;20.70;92.00
4695;DHT22;2361;49.540;8.390;2022-07-04T01:35:59;20.70;91.90
4695;DHT22;2361;49.540;8.390;2022-07-04T01:38:26;20.70;92.00
4695;DHT22;2361;49.540;8.390;2022-07-04T01:40:53;20.70;92.00
4695;DHT22;2361;49.540;8.390;2022-07-04T01:43:20;20.60;92.30
4695;DHT22;2361;49.540;8.390;2022-07-04T01:45:46;20.60;92.20
4695;DHT22;2361;49.540;8.390;2022-07-04T01:48:14;20.50;92.40
4695;DHT22;2361;49.540;8.390;2022-07-04T01:50:41;20.60;92.50
4695;DHT22;2361;49.540;8.390;2022-07-04T01:53:08;20.50;92.50
4695;DHT22;2361;49.540;8.390;2022-07-04T01:55:34;20.50;92.60
4695;DHT22;2361;49.540;8.390;2022-07-04T01:58:02;20.50;92.70
4695;DHT22;2361;49.540;8.390;2022-07-04T02:00:29;20.40;92.90
4695;DHT22;2361;49.540;8.390;2022-07-04T02:03:14;20.40;93.00
4695;DHT22;2361;49.540;8.390;2022-07-04T02:05:43;20.30;93.30
4695;DHT22;2361;49.540;8.390;2022-07-04T02:08:10;20.20;93.50
4695;DHT22;2361;49.540;8.390;2022-07-04T02:10:37;20.10;93.80
4695;DHT22;2361;49.540;8.390;2022-07-04T02:13:04;20.00;94.10
4695;DHT22;2361;49.540;8.390;2022-07-04T02:15:36;19.90;94.30
4695;DHT22;2361;49.540;8.390;2022-07-04T02:18:05;19.90;94.60
4695;DHT22;2361;49.540;8.390;2022-07-04T02:20:33;19.80;95.10
4695;DHT22;2361;49.540;8.390;2022-07-04T02:23:01;19.80;95.00
4695;DHT22;2361;49.540;8.390;2022-07-04T02:25:28;19.70;95.30
4695;DHT22;2361;49.540;8.390;2022-07-04T02:27:56;19.70;95.40
4695;DHT22;2361;49.540;8.390;2022-07-04T02:30:23;19.70;95.70
4695;DHT22;2361;49.540;8.390;2022-07-04T02:32:50;19.60;95.90
4695;DHT22;2361;49.540;8.390;2022-07-04T02:35:17;19.60;96.10
4695;DHT22;2361;49.540;8.390;2022-07-04T02:37:44;19.60;96.20
4695;DHT22;2361;49.540;8.390;2022-07-04T02:40:11;19.60;96.50
4695;DHT22;2361;49.540;8.390;2022-07-04T02:42:40;19.60;96.70
4695;DHT22;2361;49.540;8.390;2022-07-04T02:45:07;19.50;97.10
4695;DHT22;2361;49.540;8.390;2022-07-04T02:47:34;19.40;97.30
4695;DHT22;2361;49.540;8.390;2022-07-04T02:50:02;19.40;97.70
4695;DHT22;2361;49.540;8.390;2022-07-04T02:52:30;19.30;97.80
4695;DHT22;2361;49.540;8.390;2022-07-04T02:54:57;19.30;98.10
4695;DHT22;2361;49.540;8.390;2022-07-04T02:57:24;19.20;98.40
4695;DHT22;2361;49.540;8.390;2022-07-04T02:59:51;19.20;98.60
4695;DHT22;2361;49.540;8.390;2022-07-04T03:02:18;19.20;98.80
4695;DHT22;2361;49.540;8.390;2022-07-04T03:04:45;19.20;98.90
4695;DHT22;2361;49.540;8.390;2022-07-04T03:07:13;19.20;98.90
4695;DHT22;2361;49.540;8.390;2022-07-04T03:09:40;19.20;99.10
4695;DHT22;2361;49.540;8.390;2022-07-04T03:12:07;19.20;99.30
4695;DHT22;2361;49.540;8.390;2022-07-04T03:14:34;19.20;99.30
4695;DHT22;2361;49.540;8.390;2022-07-04T03:17:01;19.20;99.50
4695;DHT22;2361;49.540;8.390;2022-07-04T03:19:28;19.20;99.70
4695;DHT22;2361;49.540;8.390;2022-07-04T03:21:54;19.20;99.80
4695;DHT22;2361;49.540;8.390;2022-07-04T03:24:21;19.20;99.90
4695;DHT22;2361;49.540;8.390;2022-07-04T03:26:48;19.20;99.90
4695;DHT22;2361;49.540;8.390;2022-07-04T03:29:15;19.20;99.90
4695;DHT22;2361;49.540;8.390;2022-07-04T03:31:42;19.10;99.90
4695;DHT22;2361;49.540;8.390;2022-07-04T03:34:09;19.20;99.90
4695;DHT22;2361;49.540;8.390;2022-07-04T03:36:35;19.20;99.90
4695;DHT22;2361;49.540;8.390;2022-07-04T03:39:02;19.20;99.90
4695;DHT22;2361;49.540;8.390;2022-07-04T03:41:29;19.20;99.90
4695;DHT22;2361;49.540;8.390;2022-07-04T03:43:56;19.20;99.90
4695;DHT22;2361;49.540;8.390;2022-07-04T03:46:23;19.20;99.90
4695;DHT22;2361;49.540;8.390;2022-07-04T03:48:50;19.20;99.90
4695;DHT22;2361;49.540;8.390;2022-07-04T03:51:17;19.10;99.90
4695;DHT22;2361;49.540;8.390;2022-07-04T03:53:44;19.30;99.90
4695;DHT22;2361;49.540;8.390;2022-07-04T03:56:11;19.30;99.90
4695;DHT22;2361;49.540;8.390;2022-07-04T03:58:39;19.40;99.90
4695;DHT22;2361;49.540;8.390;2022-07-04T04:01:06;19.60;99.90
4695;DHT22;2361;49.540;8.390;2022-07-04T04:03:33;19.60;99.90
4695;DHT22;2361;49.540;8.390;2022-07-04T04:06:18;19.70;99.80
4695;DHT22;2361;49.540;8.390;2022-07-04T04:08:45;19.70;99.80
4695;DHT22;2361;49.540;8.390;2022-07-04T04:11:11;19.70;99.80
4695;DHT22;2361;49.540;8.390;2022-07-04T04:13:38;19.80;99.60
4695;DHT22;2361;49.540;8.390;2022-07-04T04:16:05;20.10;99.10
4695;DHT22;2361;49.540;8.390;2022-07-04T04:18:32;20.20;98.80
4695;DHT22;2361;49.540;8.390;2022-07-04T04:20:59;20.40;98.30
4695;DHT22;2361;49.540;8.390;2022-07-04T04:23:25;20.60;97.90
4695;DHT22;2361;49.540;8.390;2022-07-04T04:25:52;20.80;97.60
4695;DHT22;2361;49.540;8.390;2022-07-04T04:28:22;20.80;97.30
4695;DHT22;2361;49.540;8.390;2022-07-04T04:30:50;20.90;97.20
4695;DHT22;2361;49.540;8.390;2022-07-04T04:33:17;21.00;96.90
4695;DHT22;2361;49.540;8.390;2022-07-04T04:35:44;21.20;96.70
4695;DHT22;2361;49.540;8.390;2022-07-04T04:38:10;21.30;96.20
4695;DHT22;2361;49.540;8.390;2022-07-04T04:40:37;21.40;96.00
4695;DHT22;2361;49.540;8.390;2022-07-04T04:43:04;21.60;95.80
4695;DHT22;2361;49.540;8.390;2022-07-04T04:45:31;21.70;95.40
4695;DHT22;2361;49.540;8.390;2022-07-04T04:47:58;21.90;95.30
4695;DHT22;2361;49.540;8.390;2022-07-04T04:50:24;22.00;95.10
4695;DHT22;2361;49.540;8.390;2022-07-04T04:52:51;22.20;94.90
4695;DHT22;2361;49.540;8.390;2022-07-04T04:55:18;22.40;94.60
4695;DHT22;2361;49.540;8.390;2022-07-04T04:57:45;22.60;94.00
4695;DHT22;2361;49.540;8.390;2022-07-04T05:00:12;22.60;93.70
4695;DHT22;2361;49.540;8.390;2022-07-04T05:02:38;22.70;93.60
4695;DHT22;2361;49.540;8.390;2022-07-04T05:05:06;23.00;93.10
4695;DHT22;2361;49.540;8.390;2022-07-04T05:07:33;23.20;92.60
4695;DHT22;2361;49.540;8.390;2022-07-04T05:10:01;23.20;92.30
4695;DHT22;2361;49.540;8.390;2022-07-04T05:12:28;23.20;92.20
4695;DHT22;2361;49.540;8.390;2022-07-04T05:14:55;23.40;91.90
4695;DHT22;2361;49.540;8.390;2022-07-04T05:17:22;23.70;91.50
4695;DHT22;2361;49.540;8.390;2022-07-04T05:19:49;23.70;91.20
4695;DHT22;2361;49.540;8.390;2022-07-04T05:22:16;23.90;91.10
4695;DHT22;2361;49.540;8.390;2022-07-04T05:24:43;24.00;90.60
4695;DHT22;2361;49.540;8.390;2022-07-04T05:27:10;24.10;90.40
4695;DHT22;2361;49.540;8.390;2022-07-04T05:29:37;24.30;90.20
4695;DHT22;2361;49.540;8.390;2022-07-04T05:32:07;24.50;89.60
4695;DHT22;2361;49.540;8.390;2022-07-04T05:34:34;24.50;89.20
4695;DHT22;2361;49.540;8.390;2022-07-04T05:37:02;24.80;88.60
4695;DHT22;2361;49.540;8.390;2022-07-04T05:39:29;24.80;87.50
4695;DHT22;2361;49.540;8.390;2022-07-04T05:41:56;25.10;86.50
4695;DHT22;2361;49.540;8.390;2022-07-04T05:44:23;25.30;85.90
4695;DHT22;2361;49.540;8.390;2022-07-04T05:46:50;25.40;84.80
4695;DHT22;2361;49.540;8.390;2022-07-04T05:49:17;25.70;84.30
4695;DHT22;2361;49.540;8.390;2022-07-04T05:51:44;25.90;83.70
4695;DHT22;2361;49.540;8.390;2022-07-04T05:54:10;26.10;82.40
4695;DHT22;2361;49.540;8.390;2022-07-04T05:56:37;26.00;81.80
4695;DHT22;2361;49.540;8.390;2022-07-04T05:59:06;26.20;81.70
4695;DHT22;2361;49.540;8.390;2022-07-04T06:01:32;26.40;81.00
4695;DHT22;2361;49.540;8.390;2022-07-04T06:03:59;26.80;79.80
4695;DHT22;2361;49.540;8.390;2022-07-04T06:06:26;27.20;78.40
4695;DHT22;2361;49.540;8.390;2022-07-04T06:08:53;27.70;76.80
4695;DHT22;2361;49.540;8.390;2022-07-04T06:11:19;28.10;74.60
4695;DHT22;2361;49.540;8.390;2022-07-04T06:13:46;28.40;73.00
4695;DHT22;2361;49.540;8.390;2022-07-04T06:16:13;28.30;72.00
4695;DHT22;2361;49.540;8.390;2022-07-04T06:18:40;28.70;71.80
4695;DHT22;2361;49.540;8.390;2022-07-04T06:21:07;29.00;70.70
4695;DHT22;2361;49.540;8.390;2022-07-04T06:23:34;29.50;68.80
4695;DHT22;2361;49.540;8.390;2022-07-04T06:26:01;29.80;67.80
4695;DHT22;2361;49.540;8.390;2022-07-04T06:28:28;29.70;67.00
4695;DHT22;2361;49.540;8.390;2022-07-04T06:31:14;29.90;66.60
4695;DHT22;2361;49.540;8.390;2022-07-04T06:33:42;30.50;65.10
4695;DHT22;2361;49.540;8.390;2022-07-04T06:36:35;31.10;63.70
4695;DHT22;2361;49.540;8.390;2022-07-04T06:39:01;31.80;62.30
4695;DHT22;2361;49.540;8.390;2022-07-04T06:41:28;32.20;60.50
4695;DHT22;2361;49.540;8.390;2022-07-04T06:43:55;33.00;59.80
4695;DHT22;2361;49.540;8.390;2022-07-04T06:46:22;33.80;57.40
4695;DHT22;2361;49.540;8.390;2022-07-04T06:48:49;34.00;56.80
4695;DHT22;2361;49.540;8.390;2022-07-04T06:51:16;34.40;55.10
4695;DHT22;2361;49.540;8.390;2022-07-04T06:53:43;34.90;54.20
4695;DHT22;2361;49.540;8.390;2022-07-04T06:56:12;35.70;52.60
4695;DHT22;2361;49.540;8.390;2022-07-04T06:58:39;36.30;51.50
4695;DHT22;2361;49.540;8.390;2022-07-04T07:01:06;36.90;50.20
4695;DHT22;2361;49.540;8.390;2022-07-04T07:03:33;37.70;48.80
4695;DHT22;2361;49.540;8.390;2022-07-04T07:06:00;38.70;47.70
4695;DHT22;2361;49.540;8.390;2022-07-04T07:08:29;39.20;45.90
4695;DHT22;2361;49.540;8.390;2022-07-04T07:10:57;38.70;45.40
4695;DHT22;2361;49.540;8.390;2022-07-04T07:13:24;38.50;46.20
4695;DHT22;2361;49.540;8.390;2022-07-04T07:15:51;38.20;45.40
4695;DHT22;2361;49.540;8.390;2022-07-04T07:18:18;38.30;45.30
4695;DHT22;2361;49.540;8.390;2022-07-04T07:20:45;37.90;45.30
4695;DHT22;2361;49.540;8.390;2022-07-04T07:23:12;37.60;45.80
4695;DHT22;2361;49.540;8.390;2022-07-04T07:25:39;37.00;45.70
4695;DHT22;2361;49.540;8.390;2022-07-04T07:28:05;37.20;45.90
4695;DHT22;2361;49.540;8.390;2022-07-04T07:30:32;37.50;45.70
4695;DHT22;2361;49.540;8.390;2022-07-04T07:32:59;38.20;45.30
4695;DHT22;2361;49.540;8.390;2022-07-04T07:35:25;38.80;44.10
4695;DHT22;2361;49.540;8.390;2022-07-04T07:37:53;38.90;44.00
4695;DHT22;2361;49.540;8.390;2022-07-04T07:40:20;38.10;44.30
4695;DHT22;2361;49.540;8.390;2022-07-04T07:42:48;38.30;44.20
4695;DHT22;2361;49.540;8.390;2022-07-04T07:45:14;38.10;44.60
4695;DHT22;2361;49.540;8.390;2022-07-04T07:47:41;38.80;44.20
4695;DHT22;2361;49.540;8.390;2022-07-04T07:50:08;38.40;43.70
4695;DHT22;2361;49.540;8.390;2022-07-04T07:52:36;37.60;44.10
4695;DHT22;2361;49.540;8.390;2022-07-04T07:55:03;37.00;44.70
4695;DHT22;2361;49.540;8.390;2022-07-04T07:57:30;36.60;45.20
4695;DHT22;2361;49.540;8.390;2022-07-04T07:59:57;35.70;45.50
4695;DHT22;2361;49.540;8.390;2022-07-04T08:02:24;35.50;45.50
4695;DHT22;2361;49.540;8.390;2022-07-04T08:05:10;34.90;45.70
4695;DHT22;2361;49.540;8.390;2022-07-04T08:07:39;35.20;45.60
4695;DHT22;2361;49.540;8.390;2022-07-04T08:10:07;34.40;46.60
4695;DHT22;2361;49.540;8.390;2022-07-04T08:12:34;34.00;47.20
4695;DHT22;2361;49.540;8.390;2022-07-04T08:15:01;33.70;47.40
4695;DHT22;2361;49.540;8.390;2022-07-04T08:17:33;33.30;47.80
4695;DHT22;2361;49.540;8.390;2022-07-04T08:20:00;33.30;47.80
4695;DHT22;2361;49.540;8.390;2022-07-04T08:22:28;32.90;48.60
4695;DHT22;2361;49.540;8.390;2022-07-04T08:24:55;33.20;48.40
4695;DHT22;2361;49.540;8.390;2022-07-04T08:27:22;32.40;49.20
4695;DHT22;2361;49.540;8.390;2022-07-04T08:29:57;32.00;50.00
4695;DHT22;2361;49.540;8.390;2022-07-04T08:32:24;31.70;50.30
4695;DHT22;2361;49.540;8.390;2022-07-04T08:34:51;31.20;50.90
4695;DHT22;2361;49.540;8.390;2022-07-04T08:37:18;30.90;51.20
4695;DHT22;2361;49.540;8.390;2022-07-04T08:39:45;31.10;51.10
4695;DHT22;2361;49.540;8.390;2022-07-04T08:42:16;30.80;51.50
4695;DHT22;2361;49.540;8.390;2022-07-04T08:44:50;30.30;52.00
4695;DHT22;2361;49.540;8.390;2022-07-04T08:47:19;30.40;52.10
4695;DHT22;2361;49.540;8.390;2022-07-04T08:55:05;30.70;52.80
4695;DHT22;2361;49.540;8.390;2022-07-04T08:57:51;30.50;52.60
4695;DHT22;2361;49.540;8.390;2022-07-04T09:00:37;30.50;52.20
4695;DHT22;2361;49.540;8.390;2022-07-04T09:03:05;30.40;51.90
4695;DHT22;2361;49.540;8.390;2022-07-04T09:05:33;30.20;52.40
4695;DHT22;2361;49.540;8.390;2022-07-04T09:08:02;29.80;53.00
4695;DHT22;2361;49.540;8.390;2022-07-04T09:10:30;29.90;52.80
4695;DHT22;2361;49.540;8.390;2022-07-04T09:12:57;29.50;53.60
4695;DHT22;2361;49.540;8.390;2022-07-04T09:15:37;29.30;53.80
4695;DHT22;2361;49.540;8.390;2022-07-04T09:18:05;29.50;54.00
4695;DHT22;2361;49.540;8.390;2022-07-04T09:20:33;29.50;54.30
4695;DHT22;2361;49.540;8.390;2022-07-04T09:22:59;29.50;53.30
4695;DHT22;2361;49.540;8.390;2022-07-04T09:25:27;29.30;53.70
4695;DHT22;2361;49.540;8.390;2022-07-04T09:27:56;29.30;53.90
4695;DHT22;2361;49.540;8.390;2022-07-04T09:30:26;29.20;53.80
4695;DHT22;2361;49.540;8.390;2022-07-04T09:32:56;29.40;53.50
4695;DHT22;2361;49.540;8.390;2022-07-04T09:35:31;29.20;53.40
4695;DHT22;2361;49.540;8.390;2022-07-04T09:38:03;29.20;53.70
4695;DHT22;2361;49.540;8.390;2022-07-04T09:43:01;29.90;52.40
4695;DHT22;2361;49.540;8.390;2022-07-04T09:45:56;29.90;51.80
4695;DHT22;2361;49.540;8.390;2022-07-04T09:48:23;29.90;51.80
4695;DHT22;2361;49.540;8.390;2022-07-04T09:50:50;30.00;51.60
4695;DHT22;2361;49.540;8.390;2022-07-04T09:53:17;29.70;52.30
4695;DHT22;2361;49.540;8.390;2022-07-04T09:55:44;29.20;53.00
4695;DHT22;2361;49.540;8.390;2022-07-04T09:58:15;29.20;53.10
4695;DHT22;2361;49.540;8.390;2022-07-04T10:00:44;29.10;53.40
4695;DHT22;2361;49.540;8.390;2022-07-04T10:03:24;29.00;53.10
4695;DHT22;2361;49.540;8.390;2022-07-04T10:08:41;28.80;53.10
4695;DHT22;2361;49.540;8.390;2022-07-04T10:11:09;29.00;52.90
4695;DHT22;2361;49.540;8.390;2022-07-04T10:13:43;29.00;51.80
4695;DHT22;2361;49.540;8.390;2022-07-04T10:16:10;29.10;52.60
4695;DHT22;2361;49.540;8.390;2022-07-04T10:18:37;29.10;52.70
4695;DHT22;2361;49.540;8.390;2022-07-04T10:21:04;28.90;52.90
4695;DHT22;2361;49.540;8.390;2022-07-04T10:23:32;28.80;53.10
4695;DHT22;2361;49.540;8.390;2022-07-04T10:26:01;28.80;53.40
4695;DHT22;2361;49.540;8.390;2022-07-04T10:28:29;28.90;53.30
4695;DHT22;2361;49.540;8.390;2022-07-04T10:30:57;28.90;53.10
4695;DHT22;2361;49.540;8.390;2022-07-04T10:33:26;28.80;54.10
4695;DHT22;2361;49.540;8.390;2022-07-04T10:35:54;28.40;53.70
4695;DHT22;2361;49.540;8.390;2022-07-04T10:38:33;28.50;53.00
4695;DHT22;2361;49.540;8.390;2022-07-04T10:41:08;28.30;54.40
4695;DHT22;2361;49.540;8.390;2022-07-04T10:54:32;28.40;52.80
4695;DHT22;2361;49.540;8.390;2022-07-04T10:57:23;28.50;51.10
4695;DHT22;2361;49.540;8.390;2022-07-04T11:02:23;28.50;51.20
4695;DHT22;2361;49.540;8.390;2022-07-04T11:05:04;28.50;51.10
4695;DHT22;2361;49.540;8.390;2022-07-04T11:18:11;28.80;51.30
4695;DHT22;2361;49.540;8.390;2022-07-04T11:20:43;28.90;51.20
4695;DHT22;2361;49.540;8.390;2022-07-04T11:23:12;28.90;51.00
4695;DHT22;2361;49.540;8.390;2022-07-04T11:25:41;28.80;50.90
4695;DHT22;2361;49.540;8.390;2022-07-04T11:28:28;28.60;51.10
4695;DHT22;2361;49.540;8.390;2022-07-04T11:31:12;28.50;51.50
4695;DHT22;2361;49.540;8.390;2022-07-04T11:33:39;28.30;51.80
4695;DHT22;2361;49.540;8.390;2022-07-04T11:36:09;28.20;51.50
4695;DHT22;2361;49.540;8.390;2022-07-04T11:38:49;28.20;51.10
4695;DHT22;2361;49.540;8.390;2022-07-04T11:41:16;27.90;51.80
4695;DHT22;2361;49.540;8.390;2022-07-04T11:44:18;27.60;51.90
4695;DHT22;2361;49.540;8.390;2022-07-04T11:47:13;27.70;51.60
4695;DHT22;2361;49.540;8.390;2022-07-04T11:49:47;27.60;51.50
4695;DHT22;2361;49.540;8.390;2022-07-04T11:52:15;27.30;52.80
4695;DHT22;2361;49.540;8.390;2022-07-04T11:55:02;27.30;53.10
4695;DHT22;2361;49.540;8.390;2022-07-04T11:57:33;27.20;53.70
4695;DHT22;2361;49.540;8.390;2022-07-04T12:00:09;27.30;53.60
4695;DHT22;2361;49.540;8.390;2022-07-04T12:02:44;27.40;53.20
4695;DHT22;2361;49.540;8.390;2022-07-04T12:05:12;27.30;53.60
4695;DHT22;2361;49.540;8.390;2022-07-04T12:07:44;27.40;53.50
4695;DHT22;2361;49.540;8.390;2022-07-04T12:10:28;27.30;55.70
4695;DHT22;2361;49.540;8.390;2022-07-04T12:13:00;27.40;54.00
4695;DHT22;2361;49.540;8.390;2022-07-04T12:18:05;27.80;52.50
4695;DHT22;2361;49.540;8.390;2022-07-04T12:20:41;27.90;52.20
4695;DHT22;2361;49.540;8.390;2022-07-04T12:23:08;28.00;52.00
4695;DHT22;2361;49.540;8.390;2022-07-04T12:25:37;28.10;52.10
4695;DHT22;2361;49.540;8.390;2022-07-04T12:28:10;28.10;51.70
4695;DHT22;2361;49.540;8.390;2022-07-04T12:30:41;28.00;52.10
4695;DHT22;2361;49.540;8.390;2022-07-04T12:33:18;27.90;52.00
4695;DHT22;2361;49.540;8.390;2022-07-04T12:35:50;27.70;52.20
4695;DHT22;2361;49.540;8.390;2022-07-04T12:38:19;27.90;53.00
4695;DHT22;2361;49.540;8.390;2022-07-04T12:41:08;28.00;52.70
4695;DHT22;2361;49.540;8.390;2022-07-04T12:46:08;28.00;52.50
4695;DHT22;2361;49.540;8.390;2022-07-04T12:48:36;28.10;52.20
4695;DHT22;2361;49.540;8.390;2022-07-04T12:51:28;28.10;52.50
4695;DHT22;2361;49.540;8.390;2022-07-04T12:53:57;27.90;52.50
4695;DHT22;2361;49.540;8.390;2022-07-04T12:56:30;28.00;52.50
4695;DHT22;2361;49.540;8.390;2022-07-04T12:59:03;28.10;52.20
4695;DHT22;2361;49.540;8.390;2022-07-04T13:01:38;27.80;52.30
4695;DHT22;2361;49.540;8.390;2022-07-04T13:04:05;27.50;52.70
4695;DHT22;2361;49.540;8.390;2022-07-04T13:06:33;27.50;52.40
4695;DHT22;2361;49.540;8.390;2022-07-04T13:09:02;27.50;52.30
4695;DHT22;2361;49.540;8.390;2022-07-04T13:11:29;27.40;52.70
4695;DHT22;2361;49.540;8.390;2022-07-04T13:14:15;27.40;52.70
4695;DHT22;2361;49.540;8.390;2022-07-04T13:16:42;27.40;53.50
4695;DHT22;2361;49.540;8.390;2022-07-04T13:19:09;27.50;53.20
4695;DHT22;2361;49.540;8.390;2022-07-04T13:21:36;27.60;53.50
4695;DHT22;2361;49.540;8.390;2022-07-04T13:24:03;27.60;52.50
4695;DHT22;2361;49.540;8.390;2022-07-04T13:26:30;27.60;52.60
4695;DHT22;2361;49.540;8.390;2022-07-04T13:28:59;27.60;52.80
4695;DHT22;2361;49.540;8.390;2022-07-04T13:31:27;27.70;52.90
4695;DHT22;2361;49.540;8.390;2022-07-04T13:33:54;27.80;52.70
4695;DHT22;2361;49.540;8.390;2022-07-04T13:36:22;27.80;52.10
4695;DHT22;2361;49.540;8.390;2022-07-04T13:38:49;27.80;51.80
4695;DHT22;2361;49.540;8.390;2022-07-04T13:41:31;27.60;52.20
4695;DHT22;2361;49.540;8.390;2022-07-04T13:43:59;27.30;52.40
4695;DHT22;2361;49.540;8.390;2022-07-04T13:46:26;27.30;52.70
4695;DHT22;2361;49.540;8.390;2022-07-04T13:48:53;27.30;52.50
4695;DHT22;2361;49.540;8.390;2022-07-04T13:51:20;27.40;52.80
4695;DHT22;2361;49.540;8.390;2022-07-04T13:53:47;27.40;52.50
4695;DHT22;2361;49.540;8.390;2022-07-04T13:56:14;27.40;52.50
4695;DHT22;2361;49.540;8.390;2022-07-04T13:58:45;27.40;52.40
4695;DHT22;2361;49.540;8.390;2022-07-04T14:01:13;27.40;52.20
4695;DHT22;2361;49.540;8.390;2022-07-04T14:03:42;27.50;52.30
4695;DHT22;2361;49.540;8.390;2022-07-04T14:06:09;27.40;52.40
4695;DHT22;2361;49.540;8.390;2022-07-04T14:08:36;27.50;52.50
4695;DHT22;2361;49.540;8.390;2022-07-04T14:11:03;27.50;52.30
4695;DHT22;2361;49.540;8.390;2022-07-04T14:13:30;27.30;52.80
4695;DHT22;2361;49.540;8.390;2022-07-04T14:15:56;27.30;52.70
4695;DHT22;2361;49.540;8.390;2022-07-04T14:18:23;27.20;53.20
4695;DHT22;2361;49.540;8.390;2022-07-04T14:20:50;27.30;52.90
4695;DHT22;2361;49.540;8.390;2022-07-04T14:23:17;27.20;53.20
4695;DHT22;2361;49.540;8.390;2022-07-04T14:26:05;27.20;53.10
4695;DHT22;2361;49.540;8.390;2022-07-04T14:28:32;27.20;52.60
4695;DHT22;2361;49.540;8.390;2022-07-04T14:30:59;27.20;52.60
4695;DHT22;2361;49.540;8.390;2022-07-04T14:33:26;27.30;52.60
4695;DHT22;2361;49.540;8.390;2022-07-04T14:35:53;27.30;52.70
4695;DHT22;2361;49.540;8.390;2022-07-04T14:38:20;27.40;52.20
4695;DHT22;2361;49.540;8.390;2022-07-04T14:40:47;27.40;52.60
4695;DHT22;2361;49.540;8.390;2022-07-04T14:43:16;27.40;52.40
4695;DHT22;2361;49.540;8.390;2022-07-04T14:45:46;27.40;52.60
4695;DHT22;2361;49.540;8.390;2022-07-04T14:48:14;27.40;52.30
4695;DHT22;2361;49.540;8.390;2022-07-04T14:50:41;27.30;52.10
4695;DHT22;2361;49.540;8.390;2022-07-04T14:53:09;27.30;53.00
4695;DHT22;2361;49.540;8.390;2022-07-04T14:55:37;27.40;52.20
4695;DHT22;2361;49.540;8.390;2022-07-04T14:58:04;27.40;51.80
4695;DHT22;2361;49.540;8.390;2022-07-04T15:00:31;27.40;52.00
4695;DHT22;2361;49.540;8.390;2022-07-04T15:02:58;27.40;52.60
4695;DHT22;2361;49.540;8.390;2022-07-04T15:05:25;27.50;52.30
4695;DHT22;2361;49.540;8.390;2022-07-04T15:07:52;27.50;52.60
4695;DHT22;2361;49.540;8.390;2022-07-04T15:10:22;27.60;51.60
4695;DHT22;2361;49.540;8.390;2022-07-04T15:13:09;27.70;54.80
4695;DHT22;2361;49.540;8.390;2022-07-04T15:15:36;27.40;51.20
4695;DHT22;2361;49.540;8.390;2022-07-04T15:18:10;27.40;51.60
4695;DHT22;2361;49.540;8.390;2022-07-04T15:20:38;27.50;51.30
4695;DHT22;2361;49.540;8.390;2022-07-04T15:23:31;27.50;53.00
4695;DHT22;2361;49.540;8.390;2022-07-04T15:26:16;27.40;53.80
4695;DHT22;2361;49.540;8.390;2022-07-04T15:28:43;27.10;51.40
4695;DHT22;2361;49.540;8.390;2022-07-04T15:31:10;27.00;52.50
4695;DHT22;2361;49.540;8.390;2022-07-04T15:33:40;27.10;52.60
4695;DHT22;2361;49.540;8.390;2022-07-04T15:36:07;27.10;52.60
4695;DHT22;2361;49.540;8.390;2022-07-04T15:38:34;27.20;52.20
4695;DHT22;2361;49.540;8.390;2022-07-04T15:41:01;27.30;51.90
4695;DHT22;2361;49.540;8.390;2022-07-04T15:43:29;27.40;51.50
4695;DHT22;2361;49.540;8.390;2022-07-04T15:45:57;27.40;51.20
4695;DHT22;2361;49.540;8.390;2022-07-04T15:48:26;27.50;50.30
4695;DHT22;2361;49.540;8.390;2022-07-04T15:50:53;27.50;50.20
4695;DHT22;2361;49.540;8.390;2022-07-04T15:53:20;27.50;51.20
4695;DHT22;2361;49.540;8.390;2022-07-04T15:55:47;27.60;51.10
4695;DHT22;2361;49.540;8.390;2022-07-04T15:58:13;27.70;49.70
4695;DHT22;2361;49.540;8.390;2022-07-04T16:00:40;27.70;49.10
4695;DHT22;2361;49.540;8.390;2022-07-04T16:03:07;27.60;49.20
4695;DHT22;2361;49.540;8.390;2022-07-04T16:05:34;27.60;49.30
4695;DHT22;2361;49.540;8.390;2022-07-04T16:08:02;27.60;49.80
4695;DHT22;2361;49.540;8.390;2022-07-04T16:10:28;27.70;49.20
4695;DHT22;2361;49.540;8.390;2022-07-04T16:12:55;27.60;50.00
4695;DHT22;2361;49.540;8.390;2022-07-04T16:15:22;27.50;51.20
4695;DHT22;2361;49.540;8.390;2022-07-04T16:17:49;27.50;51.20
4695;DHT22;2361;49.540;8.390;2022-07-04T16:20:16;27.40;51.10
4695;DHT22;2361;49.540;8.390;2022-07-04T16:22:45;27.30;51.80
4695;DHT22;2361;49.540;8.390;2022-07-04T16:25:12;27.30;51.90
4695;DHT22;2361;49.540;8.390;2022-07-04T16:27:39;27.30;51.80
4695;DHT22;2361;49.540;8.390;2022-07-04T16:30:06;27.30;50.80
4695;DHT22;2361;49.540;8.390;2022-07-04T16:32:33;27.30;51.30
4695;DHT22;2361;49.540;8.390;2022-07-04T16:35:03;27.30;51.10
4695;DHT22;2361;49.540;8.390;2022-07-04T16:37:29;27.30;51.20
4695;DHT22;2361;49.540;8.390;2022-07-04T16:39:56;27.20;51.20
4695;DHT22;2361;49.540;8.390;2022-07-04T16:42:23;27.30;51.60
4695;DHT22;2361;49.540;8.390;2022-07-04T16:44:50;27.30;50.90
4695;DHT22;2361;49.540;8.390;2022-07-04T16:47:17;27.30;50.80
4695;DHT22;2361;49.540;8.390;2022-07-04T16:49:44;27.30;51.60
4695;DHT22;2361;49.540;8.390;2022-07-04T16:52:12;27.20;51.20